sensor_id;sensor_type;location;lat;lon;timestamp;pressure;altitude;pressure_sealevel;temperature;humidity
40730;BME280;26418;50.070;8.436;2023-04-24T00:02:18;98788.81;;;10.59;92.42
40730;BME280;26418;50.070;8.436;2023-04-24T00:04:44;98806.41;;;10.65;92.73
40730;BME280;26418;50.070;8.436;2023-04-24T00:07:12;98792.56;;;10.67;92.90
40730;BME280;26418;50.070;8.436;2023-04-24T00:09:38;98786.38;;;10.66;92.80
40730;BME280;26418;50.070;8.436;2023-04-24T00:12:04;98787.97;;;10.67;92.65
40730;BME280;26418;50.070;8.436;2023-04-24T00:14:30;98798.78;;;10.67;92.90
40730;BME280;26418;50.070;8.436;2023-04-24T00:16:55;98781.59;;;10.63;92.85
40730;BME280;26418;50.070;8.436;2023-04-24T00:19:21;98787.16;;;10.67;92.37
40730;BME280;26418;50.070;8.436;2023-04-24T00:21:46;98788.59;;;10.64;92.37
40730;BME280;26418;50.070;8.436;2023-04-24T00:24:15;98780.34;;;10.61;92.12
40730;BME280;26418;50.070;8.436;2023-04-24T00:26:40;98777.66;;;10.61;92.41
40730;BME280;26418;50.070;8.436;2023-04-24T00:29:06;98784.50;;;10.58;92.58
40730;BME280;26418;50.070;8.436;2023-04-24T00:31:31;98793.09;;;10.60;92.69
40730;BME280;26418;50.070;8.436;2023-04-24T00:33:59;98780.22;;;10.57;92.57
40730;BME280;26418;50.070;8.436;2023-04-24T00:36:25;98784.66;;;10.62;92.42
40730;BME280;26418;50.070;8.436;2023-04-24T00:38:51;98777.00;;;10.64;92.36
40730;BME280;26418;50.070;8.436;2023-04-24T00:41:17;98769.41;;;10.57;92.32
40730;BME280;26418;50.070;8.436;2023-04-24T00:43:42;98778.59;;;10.65;92.27
40730;BME280;26418;50.070;8.436;2023-04-24T00:46:08;98773.50;;;10.63;92.09
40730;BME280;26418;50.070;8.436;2023-04-24T00:48:34;98773.50;;;10.63;92.26
40730;BME280;26418;50.070;8.436;2023-04-24T00:50:59;98773.97;;;10.65;92.15
40730;BME280;26418;50.070;8.436;2023-04-24T00:53:24;98747.03;;;10.48;91.30
40730;BME280;26418;50.070;8.436;2023-04-24T00:55:50;98756.09;;;10.52;91.58
40730;BME280;26418;50.070;8.436;2023-04-24T00:58:16;98745.94;;;10.49;91.61
40730;BME280;26418;50.070;8.436;2023-04-24T01:00:41;98756.69;;;10.58;91.92
40730;BME280;26418;50.070;8.436;2023-04-24T01:03:07;98752.59;;;10.51;91.99
40730;BME280;26418;50.070;8.436;2023-04-24T01:05:33;98747.38;;;10.46;92.11
40730;BME280;26418;50.070;8.436;2023-04-24T01:07:59;98747.38;;;10.46;92.01
40730;BME280;26418;50.070;8.436;2023-04-24T01:10:25;98747.03;;;10.48;92.44
40730;BME280;26418;50.070;8.436;2023-04-24T01:12:52;98747.84;;;10.48;92.50
40730;BME280;26418;50.070;8.436;2023-04-24T01:15:18;98731.69;;;10.40;92.65
40730;BME280;26418;50.070;8.436;2023-04-24T01:17:43;98747.72;;;10.45;92.83
40730;BME280;26418;50.070;8.436;2023-04-24T01:20:09;98751.19;;;10.45;92.85
40730;BME280;26418;50.070;8.436;2023-04-24T01:22:34;98735.63;;;10.42;93.16
40730;BME280;26418;50.070;8.436;2023-04-24T01:25:00;98752.78;;;10.46;93.16
40730;BME280;26418;50.070;8.436;2023-04-24T01:27:25;98739.63;;;10.45;93.24
40730;BME280;26418;50.070;8.436;2023-04-24T01:29:51;98744.69;;;10.46;93.40
40730;BME280;26418;50.070;8.436;2023-04-24T01:32:17;98744.69;;;10.46;93.39
40730;BME280;26418;50.070;8.436;2023-04-24T01:34:43;98731.34;;;10.41;93.55
40730;BME280;26418;50.070;8.436;2023-04-24T01:37:09;98743.75;;;10.42;93.55
40730;BME280;26418;50.070;8.436;2023-04-24T01:39:35;98731.50;;;10.36;93.66
40730;BME280;26418;50.070;8.436;2023-04-24T01:42:00;98740.25;;;10.42;94.01
40730;BME280;26418;50.070;8.436;2023-04-24T01:44:27;98737.56;;;10.42;94.04
40730;BME280;26418;50.070;8.436;2023-04-24T01:46:54;98742.63;;;10.43;94.08
40730;BME280;26418;50.070;8.436;2023-04-24T01:49:20;98741.50;;;10.44;93.99
40730;BME280;26418;50.070;8.436;2023-04-24T01:51:45;98744.22;;;10.44;93.85
40730;BME280;26418;50.070;8.436;2023-04-24T01:54:12;98743.88;;;10.46;94.00
40730;BME280;26418;50.070;8.436;2023-04-24T01:56:41;98742.13;;;10.50;93.61
40730;BME280;26418;50.070;8.436;2023-04-24T01:59:09;98745.94;;;10.49;93.49
40730;BME280;26418;50.070;8.436;2023-04-24T02:01:35;98737.69;;;10.45;93.24
40730;BME280;26418;50.070;8.436;2023-04-24T02:04:01;98746.88;;;10.53;92.97
40730;BME280;26418;50.070;8.436;2023-04-24T02:06:27;98760.22;;;10.49;92.50
40730;BME280;26418;50.070;8.436;2023-04-24T02:08:52;98755.97;;;10.48;92.98
40730;BME280;26418;50.070;8.436;2023-04-24T02:11:18;98745.31;;;10.43;92.97
40730;BME280;26418;50.070;8.436;2023-04-24T02:13:43;98754.69;;;10.46;92.97
40730;BME280;26418;50.070;8.436;2023-04-24T02:16:09;98752.94;;;10.50;92.98
40730;BME280;26418;50.070;8.436;2023-04-24T02:18:34;98749.88;;;10.51;93.03
40730;BME280;26418;50.070;8.436;2023-04-24T02:21:00;98746.41;;;10.51;92.68
40730;BME280;26418;50.070;8.436;2023-04-24T02:23:25;98744.34;;;10.48;92.59
40730;BME280;26418;50.070;8.436;2023-04-24T02:25:52;98745.94;;;10.49;92.58
40730;BME280;26418;50.070;8.436;2023-04-24T02:28:18;98733.13;;;10.37;92.80
40730;BME280;26418;50.070;8.436;2023-04-24T02:30:43;98739.63;;;10.45;92.90
40730;BME280;26418;50.070;8.436;2023-04-24T02:33:09;98734.78;;;10.50;92.93
40730;BME280;26418;50.070;8.436;2023-04-24T02:35:34;98749.41;;;10.49;92.76
40730;BME280;26418;50.070;8.436;2023-04-24T02:38:00;98742.13;;;10.50;93.30
40730;BME280;26418;50.070;8.436;2023-04-24T02:40:25;98748.00;;;10.52;93.26
40730;BME280;26418;50.070;8.436;2023-04-24T02:42:50;98748.78;;;10.52;93.13
40730;BME280;26418;50.070;8.436;2023-04-24T02:45:16;98755.16;;;10.48;93.01
40730;BME280;26418;50.070;8.436;2023-04-24T02:47:41;98759.09;;;10.50;93.04
40730;BME280;26418;50.070;8.436;2023-04-24T02:50:07;98765.31;;;10.51;93.33
40730;BME280;26418;50.070;8.436;2023-04-24T02:52:32;98765.31;;;10.51;93.37
40730;BME280;26418;50.070;8.436;2023-04-24T02:54:57;98768.50;;;10.53;93.39
40730;BME280;26418;50.070;8.436;2023-04-24T02:57:23;98767.34;;;10.54;93.52
40730;BME280;26418;50.070;8.436;2023-04-24T02:59:48;98761.94;;;10.54;93.50
40730;BME280;26418;50.070;8.436;2023-04-24T03:02:16;98758.47;;;10.53;93.81
40730;BME280;26418;50.070;8.436;2023-04-24T03:04:42;98758.59;;;10.57;93.58
40730;BME280;26418;50.070;8.436;2023-04-24T03:07:10;98761.63;;;10.56;93.55
40730;BME280;26418;50.070;8.436;2023-04-24T03:09:36;98760.06;;;10.54;93.86
40730;BME280;26418;50.070;8.436;2023-04-24T03:12:01;98765.94;;;10.57;93.71
40730;BME280;26418;50.070;8.436;2023-04-24T03:14:26;98766.25;;;10.55;93.71
40730;BME280;26418;50.070;8.436;2023-04-24T03:16:51;98765.47;;;10.54;94.10
40730;BME280;26418;50.070;8.436;2023-04-24T03:19:17;98766.56;;;10.53;93.97
40730;BME280;26418;50.070;8.436;2023-04-24T03:21:42;98766.91;;;10.52;93.89
40730;BME280;26418;50.070;8.436;2023-04-24T03:24:08;98774.56;;;10.50;93.58
40730;BME280;26418;50.070;8.436;2023-04-24T03:26:34;98771.72;;;10.46;93.71
40730;BME280;26418;50.070;8.436;2023-04-24T03:28:59;98786.47;;;10.49;93.57
40730;BME280;26418;50.070;8.436;2023-04-24T03:31:24;98788.06;;;10.50;93.53
40730;BME280;26418;50.070;8.436;2023-04-24T03:33:49;98792.66;;;10.49;93.40
40730;BME280;26418;50.070;8.436;2023-04-24T03:36:16;98787.94;;;10.46;93.08
40730;BME280;26418;50.070;8.436;2023-04-24T03:38:41;98775.88;;;10.44;92.95
40730;BME280;26418;50.070;8.436;2023-04-24T03:41:06;98785.69;;;10.48;92.51
40730;BME280;26418;50.070;8.436;2023-04-24T03:43:32;98787.94;;;10.46;92.32
40730;BME280;26418;50.070;8.436;2023-04-24T03:45:59;98798.69;;;10.55;91.53
40730;BME280;26418;50.070;8.436;2023-04-24T03:48:25;98782.66;;;10.50;88.49
40730;BME280;26418;50.070;8.436;2023-04-24T03:50:50;98806.78;;;10.55;87.75
40730;BME280;26418;50.070;8.436;2023-04-24T03:53:16;98797.63;;;10.47;88.01
40730;BME280;26418;50.070;8.436;2023-04-24T03:55:41;98809.97;;;10.57;88.45
40730;BME280;26418;50.070;8.436;2023-04-24T03:58:07;98818.41;;;10.56;87.72
40730;BME280;26418;50.070;8.436;2023-04-24T04:00:32;98802.84;;;10.52;85.03
40730;BME280;26418;50.070;8.436;2023-04-24T04:02:58;98816.19;;;10.58;82.92
40730;BME280;26418;50.070;8.436;2023-04-24T04:05:23;98820.56;;;10.62;78.19
40730;BME280;26418;50.070;8.436;2023-04-24T04:07:48;98817.28;;;10.57;77.93
40730;BME280;26418;50.070;8.436;2023-04-24T04:10:14;98816.69;;;10.51;77.18
40730;BME280;26418;50.070;8.436;2023-04-24T04:12:39;98823.72;;;10.43;76.84
40730;BME280;26418;50.070;8.436;2023-04-24T04:15:05;98823.56;;;10.40;76.42
40730;BME280;26418;50.070;8.436;2023-04-24T04:17:32;98827.91;;;10.23;75.99
40730;BME280;26418;50.070;8.436;2023-04-24T04:19:57;98830.28;;;10.25;74.62
40730;BME280;26418;50.070;8.436;2023-04-24T04:22:22;98838.59;;;10.19;74.56
40730;BME280;26418;50.070;8.436;2023-04-24T04:24:48;98844.34;;;10.09;75.32
40730;BME280;26418;50.070;8.436;2023-04-24T04:27:13;98843.13;;;9.98;74.94
40730;BME280;26418;50.070;8.436;2023-04-24T04:29:38;98843.13;;;9.89;75.47
40730;BME280;26418;50.070;8.436;2023-04-24T04:32:05;98841.88;;;9.86;76.39
40730;BME280;26418;50.070;8.436;2023-04-24T04:34:31;98847.75;;;9.80;76.22
40730;BME280;26418;50.070;8.436;2023-04-24T04:36:57;98846.69;;;9.72;76.63
40730;BME280;26418;50.070;8.436;2023-04-24T04:39:26;98843.69;;;9.65;77.25
40730;BME280;26418;50.070;8.436;2023-04-24T04:41:53;98857.78;;;9.70;77.08
40730;BME280;26418;50.070;8.436;2023-04-24T04:44:19;98857.97;;;9.65;77.09
40730;BME280;26418;50.070;8.436;2023-04-24T04:46:44;98858.75;;;9.57;77.52
40730;BME280;26418;50.070;8.436;2023-04-24T04:49:09;98864.50;;;9.55;78.05
40730;BME280;26418;50.070;8.436;2023-04-24T04:51:36;98862.59;;;9.47;77.90
40730;BME280;26418;50.070;8.436;2023-04-24T04:54:01;98856.56;;;9.41;78.25
40730;BME280;26418;50.070;8.436;2023-04-24T04:56:27;98870.38;;;9.49;78.36
40730;BME280;26418;50.070;8.436;2023-04-24T04:58:52;98880.03;;;9.41;79.07
40730;BME280;26418;50.070;8.436;2023-04-24T05:01:17;98875.78;;;9.40;79.53
40730;BME280;26418;50.070;8.436;2023-04-24T05:03:43;98888.78;;;9.47;79.35
40730;BME280;26418;50.070;8.436;2023-04-24T05:06:08;98892.13;;;9.43;79.69
40730;BME280;26418;50.070;8.436;2023-04-24T05:08:34;98894.81;;;9.43;81.08
40730;BME280;26418;50.070;8.436;2023-04-24T05:10:59;98899.44;;;9.52;85.95
40730;BME280;26418;50.070;8.436;2023-04-24T05:13:25;98905.75;;;9.73;89.90
40730;BME280;26418;50.070;8.436;2023-04-24T05:15:50;98903.66;;;9.88;89.22
40730;BME280;26418;50.070;8.436;2023-04-24T05:18:16;98906.03;;;9.98;88.37
40730;BME280;26418;50.070;8.436;2023-04-24T05:20:41;98914.41;;;10.14;86.30
40730;BME280;26418;50.070;8.436;2023-04-24T05:23:09;98914.38;;;10.23;85.27
40730;BME280;26418;50.070;8.436;2023-04-24T05:25:34;98915.97;;;10.24;79.24
40730;BME280;26418;50.070;8.436;2023-04-24T05:28:01;98927.41;;;10.38;80.08
40730;BME280;26418;50.070;8.436;2023-04-24T05:30:26;98920.91;;;10.31;73.86
40730;BME280;26418;50.070;8.436;2023-04-24T05:32:51;98927.13;;;10.22;72.81
40730;BME280;26418;50.070;8.436;2023-04-24T05:35:17;98929.97;;;10.26;71.67
40730;BME280;26418;50.070;8.436;2023-04-24T05:37:43;98943.00;;;10.24;70.86
40730;BME280;26418;50.070;8.436;2023-04-24T05:40:09;98942.69;;;10.17;71.58
40730;BME280;26418;50.070;8.436;2023-04-24T05:42:35;98943.34;;;10.14;71.13
40730;BME280;26418;50.070;8.436;2023-04-24T05:45:00;98952.41;;;10.09;70.62
40730;BME280;26418;50.070;8.436;2023-04-24T05:47:26;98953.22;;;10.01;70.77
40730;BME280;26418;50.070;8.436;2023-04-24T05:49:51;98942.44;;;9.83;71.36
40730;BME280;26418;50.070;8.436;2023-04-24T05:52:17;98959.59;;;9.87;71.25
40730;BME280;26418;50.070;8.436;2023-04-24T05:54:42;98963.56;;;9.81;70.93
40730;BME280;26418;50.070;8.436;2023-04-24T05:57:07;98961.81;;;9.77;71.59
40730;BME280;26418;50.070;8.436;2023-04-24T06:01:59;98970.72;;;9.68;72.66
40730;BME280;26418;50.070;8.436;2023-04-24T06:04:25;98989.63;;;9.68;72.57
40730;BME280;26418;50.070;8.436;2023-04-24T06:06:50;98986.28;;;9.63;73.07
40730;BME280;26418;50.070;8.436;2023-04-24T06:09:20;98987.06;;;9.63;72.73
40730;BME280;26418;50.070;8.436;2023-04-24T06:11:46;98980.88;;;9.63;73.16
40730;BME280;26418;50.070;8.436;2023-04-24T06:14:11;98992.63;;;9.75;73.01
40730;BME280;26418;50.070;8.436;2023-04-24T06:16:36;98990.88;;;9.80;72.50
40730;BME280;26418;50.070;8.436;2023-04-24T06:19:03;98979.94;;;9.85;73.39
40730;BME280;26418;50.070;8.436;2023-04-24T06:21:29;98985.94;;;9.90;73.24
40730;BME280;26418;50.070;8.436;2023-04-24T06:23:54;98986.91;;;9.95;73.61
40730;BME280;26418;50.070;8.436;2023-04-24T06:26:21;98987.69;;;9.95;73.53
40730;BME280;26418;50.070;8.436;2023-04-24T06:28:47;98991.19;;;9.96;73.61
40730;BME280;26418;50.070;8.436;2023-04-24T06:31:12;98995.66;;;10.00;72.91
40730;BME280;26418;50.070;8.436;2023-04-24T06:33:37;98992.47;;;9.98;71.77
40730;BME280;26418;50.070;8.436;2023-04-24T06:36:03;98999.16;;;9.92;71.74
40730;BME280;26418;50.070;8.436;2023-04-24T06:38:29;99014.38;;;10.05;71.75
40730;BME280;26418;50.070;8.436;2023-04-24T06:40:54;99011.50;;;10.28;71.14
40730;BME280;26418;50.070;8.436;2023-04-24T06:43:20;98999.03;;;10.62;69.26
40730;BME280;26418;50.070;8.436;2023-04-24T06:45:45;99011.16;;;10.95;73.21
40730;BME280;26418;50.070;8.436;2023-04-24T06:48:12;98999.28;;;11.17;69.25
40730;BME280;26418;50.070;8.436;2023-04-24T06:50:37;99008.63;;;11.28;65.83
40730;BME280;26418;50.070;8.436;2023-04-24T06:53:03;99002.06;;;11.29;66.07
40730;BME280;26418;50.070;8.436;2023-04-24T06:55:28;99004.59;;;11.35;65.25
40730;BME280;26418;50.070;8.436;2023-04-24T06:57:53;98992.59;;;11.44;65.80
40730;BME280;26418;50.070;8.436;2023-04-24T07:00:19;98991.88;;;11.56;65.23
40730;BME280;26418;50.070;8.436;2023-04-24T07:02:44;98996.03;;;11.75;64.48
40730;BME280;26418;50.070;8.436;2023-04-24T07:05:10;98989.69;;;11.92;63.99
40730;BME280;26418;50.070;8.436;2023-04-24T07:07:36;98988.88;;;12.13;63.05
40730;BME280;26418;50.070;8.436;2023-04-24T07:10:04;98999.84;;;12.16;61.94
40730;BME280;26418;50.070;8.436;2023-04-24T07:12:29;98992.94;;;12.06;61.56
40730;BME280;26418;50.070;8.436;2023-04-24T07:14:54;98989.53;;;11.88;62.09
40730;BME280;26418;50.070;8.436;2023-04-24T07:17:20;98996.03;;;11.96;62.13
40730;BME280;26418;50.070;8.436;2023-04-24T07:19:45;98987.31;;;11.90;63.28
40730;BME280;26418;50.070;8.436;2023-04-24T07:22:11;98992.94;;;11.85;62.95
40730;BME280;26418;50.070;8.436;2023-04-24T07:24:42;98993.00;;;11.98;63.56
40730;BME280;26418;50.070;8.436;2023-04-24T07:27:08;98977.47;;;12.07;63.08
40730;BME280;26418;50.070;8.436;2023-04-24T07:29:33;98989.38;;;12.27;61.19
40730;BME280;26418;50.070;8.436;2023-04-24T07:31:59;98984.53;;;12.33;61.13
40730;BME280;26418;50.070;8.436;2023-04-24T07:34:24;98983.78;;;12.45;61.50
40730;BME280;26418;50.070;8.436;2023-04-24T07:36:49;98991.94;;;12.57;61.79
40730;BME280;26418;50.070;8.436;2023-04-24T07:39:15;98978.84;;;12.71;61.96
40730;BME280;26418;50.070;8.436;2023-04-24T07:41:40;98983.06;;;12.94;60.71
40730;BME280;26418;50.070;8.436;2023-04-24T07:44:06;98995.47;;;13.07;59.92
40730;BME280;26418;50.070;8.436;2023-04-24T07:46:31;98997.75;;;13.05;59.10
40730;BME280;26418;50.070;8.436;2023-04-24T07:48:57;99006.22;;;13.03;59.27
40730;BME280;26418;50.070;8.436;2023-04-24T07:51:24;98978.50;;;12.98;58.19
40730;BME280;26418;50.070;8.436;2023-04-24T07:53:51;98991.75;;;13.12;58.55
40730;BME280;26418;50.070;8.436;2023-04-24T07:56:16;99002.03;;;13.31;57.20
40730;BME280;26418;50.070;8.436;2023-04-24T07:58:42;98995.47;;;13.44;57.40
40730;BME280;26418;50.070;8.436;2023-04-24T08:01:07;98989.19;;;13.68;57.13
40730;BME280;26418;50.070;8.436;2023-04-24T08:03:32;99000.19;;;13.72;55.94
40730;BME280;26418;50.070;8.436;2023-04-24T08:05:58;99001.31;;;13.71;54.85
40730;BME280;26418;50.070;8.436;2023-04-24T08:08:24;98994.09;;;13.63;55.67
40730;BME280;26418;50.070;8.436;2023-04-24T08:10:50;98995.78;;;13.67;55.49
40730;BME280;26418;50.070;8.436;2023-04-24T08:13:15;98986.94;;;13.71;55.56
40730;BME280;26418;50.070;8.436;2023-04-24T08:15:40;99001.19;;;14.08;55.01
40730;BME280;26418;50.070;8.436;2023-04-24T08:18:06;98995.53;;;14.29;54.79
40730;BME280;26418;50.070;8.436;2023-04-24T08:20:32;98998.53;;;14.40;52.35
40730;BME280;26418;50.070;8.436;2023-04-24T08:22:57;99001.31;;;14.28;52.54
40730;BME280;26418;50.070;8.436;2023-04-24T08:25:23;98989.81;;;14.19;53.00
40730;BME280;26418;50.070;8.436;2023-04-24T08:27:50;99009.56;;;14.31;53.40
40730;BME280;26418;50.070;8.436;2023-04-24T08:30:15;99005.53;;;14.25;53.16
40730;BME280;26418;50.070;8.436;2023-04-24T08:32:41;99015.31;;;14.14;52.52
40730;BME280;26418;50.070;8.436;2023-04-24T08:35:07;99007.94;;;13.86;53.24
40730;BME280;26418;50.070;8.436;2023-04-24T08:37:34;99014.72;;;13.51;53.13
40730;BME280;26418;50.070;8.436;2023-04-24T08:40:02;99020.00;;;13.35;54.40
40730;BME280;26418;50.070;8.436;2023-04-24T08:42:31;99019.56;;;13.21;55.47
40730;BME280;26418;50.070;8.436;2023-04-24T08:44:58;99026.47;;;13.06;56.51
40730;BME280;26418;50.070;8.436;2023-04-24T08:47:23;99025.66;;;12.93;57.16
40730;BME280;26418;50.070;8.436;2023-04-24T08:49:51;99031.31;;;12.88;57.16
40730;BME280;26418;50.070;8.436;2023-04-24T08:52:17;99034.13;;;12.67;57.61
40730;BME280;26418;50.070;8.436;2023-04-24T08:54:43;99035.53;;;12.52;58.30
40730;BME280;26418;50.070;8.436;2023-04-24T08:57:11;99060.19;;;12.47;58.78
40730;BME280;26418;50.070;8.436;2023-04-24T08:59:38;99050.78;;;12.44;58.43
40730;BME280;26418;50.070;8.436;2023-04-24T09:02:03;99053.16;;;12.46;62.05
40730;BME280;26418;50.070;8.436;2023-04-24T09:04:29;99045.97;;;12.50;59.75
40730;BME280;26418;50.070;8.436;2023-04-24T09:06:56;99052.88;;;12.72;60.31
40730;BME280;26418;50.070;8.436;2023-04-24T09:09:23;99062.41;;;12.90;58.83
40730;BME280;26418;50.070;8.436;2023-04-24T09:11:50;99049.44;;;13.09;59.76
40730;BME280;26418;50.070;8.436;2023-04-24T09:14:17;99062.56;;;13.31;58.47
40730;BME280;26418;50.070;8.436;2023-04-24T09:16:43;99054.22;;;13.49;56.83
40730;BME280;26418;50.070;8.436;2023-04-24T09:19:08;99036.66;;;13.34;55.81
40730;BME280;26418;50.070;8.436;2023-04-24T09:21:34;99053.19;;;13.29;56.19
40730;BME280;26418;50.070;8.436;2023-04-24T09:24:01;99062.66;;;13.23;56.48
40730;BME280;26418;50.070;8.436;2023-04-24T09:26:31;99069.91;;;13.06;58.67
40730;BME280;26418;50.070;8.436;2023-04-24T09:29:01;99061.88;;;13.10;58.88
40730;BME280;26418;50.070;8.436;2023-04-24T09:31:28;99071.94;;;13.09;57.83
40730;BME280;26418;50.070;8.436;2023-04-24T09:36:27;99057.94;;;13.19;59.48
40730;BME280;26418;50.070;8.436;2023-04-24T09:38:57;99069.50;;;13.41;56.73
40730;BME280;26418;50.070;8.436;2023-04-24T09:41:23;99077.63;;;13.66;57.40
40730;BME280;26418;50.070;8.436;2023-04-24T09:43:48;99066.50;;;13.83;55.68
40730;BME280;26418;50.070;8.436;2023-04-24T09:46:14;99071.00;;;13.92;55.32
40730;BME280;26418;50.070;8.436;2023-04-24T09:48:40;99076.47;;;14.20;55.01
40730;BME280;26418;50.070;8.436;2023-04-24T09:51:06;99075.31;;;14.34;54.95
40730;BME280;26418;50.070;8.436;2023-04-24T09:53:36;99079.13;;;14.61;55.42
40730;BME280;26418;50.070;8.436;2023-04-24T09:56:07;99085.63;;;14.85;53.52
40730;BME280;26418;50.070;8.436;2023-04-24T09:58:35;99076.13;;;14.94;53.88
40730;BME280;26418;50.070;8.436;2023-04-24T10:01:02;99080.72;;;15.06;52.78
40730;BME280;26418;50.070;8.436;2023-04-24T10:03:31;99078.78;;;15.23;52.69
40730;BME280;26418;50.070;8.436;2023-04-24T10:06:01;99083.72;;;15.17;52.88
40730;BME280;26418;50.070;8.436;2023-04-24T10:08:33;99105.03;;;15.15;55.07
40730;BME280;26418;50.070;8.436;2023-04-24T10:10:59;99103.75;;;15.09;57.69
40730;BME280;26418;50.070;8.436;2023-04-24T10:13:25;99103.25;;;14.75;58.49
40730;BME280;26418;50.070;8.436;2023-04-24T10:15:51;99105.63;;;14.48;62.19
40730;BME280;26418;50.070;8.436;2023-04-24T10:18:16;99102.31;;;14.26;64.50
40730;BME280;26418;50.070;8.436;2023-04-24T10:20:42;99112.97;;;14.19;63.49
40730;BME280;26418;50.070;8.436;2023-04-24T10:23:08;99114.03;;;14.02;63.95
40730;BME280;26418;50.070;8.436;2023-04-24T10:25:34;99111.69;;;13.88;63.05
40730;BME280;26418;50.070;8.436;2023-04-24T10:28:01;99130.13;;;13.82;63.11
40730;BME280;26418;50.070;8.436;2023-04-24T10:30:28;99129.03;;;13.71;63.66
40730;BME280;26418;50.070;8.436;2023-04-24T10:32:54;99120.41;;;13.57;65.23
40730;BME280;26418;50.070;8.436;2023-04-24T10:35:20;99131.97;;;13.41;64.55
40730;BME280;26418;50.070;8.436;2023-04-24T10:37:58;99138.63;;;13.44;65.83
40730;BME280;26418;50.070;8.436;2023-04-24T10:40:32;99150.38;;;13.35;64.40
40730;BME280;26418;50.070;8.436;2023-04-24T10:42:59;99143.19;;;13.40;66.25
40730;BME280;26418;50.070;8.436;2023-04-24T10:45:25;99154.16;;;13.56;66.17
40730;BME280;26418;50.070;8.436;2023-04-24T10:47:57;99158.00;;;13.92;64.45
40730;BME280;26418;50.070;8.436;2023-04-24T10:50:25;99161.03;;;14.15;64.59
40730;BME280;26418;50.070;8.436;2023-04-24T10:52:50;99148.66;;;14.30;62.42
40730;BME280;26418;50.070;8.436;2023-04-24T10:55:44;99155.56;;;14.68;62.78
40730;BME280;26418;50.070;8.436;2023-04-24T10:58:10;99154.84;;;15.00;61.16
40730;BME280;26418;50.070;8.436;2023-04-24T11:00:37;99154.69;;;15.40;60.13
40730;BME280;26418;50.070;8.436;2023-04-24T11:03:22;99151.28;;;15.44;56.42
40730;BME280;26418;50.070;8.436;2023-04-24T11:05:57;99168.59;;;15.51;57.62
40730;BME280;26418;50.070;8.436;2023-04-24T11:08:37;99166.81;;;15.27;56.18
40730;BME280;26418;50.070;8.436;2023-04-24T11:22:00;99166.50;;;14.43;56.94
40730;BME280;26418;50.070;8.436;2023-04-24T11:27:06;99167.41;;;14.48;60.53
40730;BME280;26418;50.070;8.436;2023-04-24T11:35:01;99166.72;;;16.03;51.23
40730;BME280;26418;50.070;8.436;2023-04-24T11:37:33;99155.63;;;16.32;50.46
40730;BME280;26418;50.070;8.436;2023-04-24T11:40:00;99155.41;;;16.60;49.14
40730;BME280;26418;50.070;8.436;2023-04-24T11:42:25;99155.47;;;16.84;49.40
40730;BME280;26418;50.070;8.436;2023-04-24T11:44:55;99152.69;;;17.46;47.92
40730;BME280;26418;50.070;8.436;2023-04-24T11:47:30;99168.84;;;17.82;45.03
40730;BME280;26418;50.070;8.436;2023-04-24T11:49:59;99165.94;;;17.71;44.27
40730;BME280;26418;50.070;8.436;2023-04-24T11:52:28;99174.78;;;17.14;45.82
40730;BME280;26418;50.070;8.436;2023-04-24T11:54:53;99190.09;;;16.79;47.05
40730;BME280;26418;50.070;8.436;2023-04-24T11:57:20;99209.63;;;16.42;49.12
40730;BME280;26418;50.070;8.436;2023-04-24T11:59:45;99232.94;;;15.40;54.07
40730;BME280;26418;50.070;8.436;2023-04-24T12:02:25;99246.69;;;14.09;61.10
40730;BME280;26418;50.070;8.436;2023-04-24T12:04:52;99244.81;;;13.17;63.99
40730;BME280;26418;50.070;8.436;2023-04-24T12:07:17;99243.13;;;12.70;66.02
40730;BME280;26418;50.070;8.436;2023-04-24T12:09:44;99236.78;;;12.45;68.16
40730;BME280;26418;50.070;8.436;2023-04-24T12:12:12;99242.66;;;12.47;69.58
40730;BME280;26418;50.070;8.436;2023-04-24T12:17:09;99236.66;;;12.63;68.49
40730;BME280;26418;50.070;8.436;2023-04-24T12:19:35;99231.53;;;12.40;69.05
40730;BME280;26418;50.070;8.436;2023-04-24T12:22:05;99219.63;;;12.11;67.58
40730;BME280;26418;50.070;8.436;2023-04-24T12:24:31;99226.81;;;12.07;69.51
40730;BME280;26418;50.070;8.436;2023-04-24T12:26:57;99229.00;;;12.14;68.71
40730;BME280;26418;50.070;8.436;2023-04-24T12:29:23;99224.41;;;12.35;70.78
40730;BME280;26418;50.070;8.436;2023-04-24T12:31:50;99220.25;;;12.59;70.06
40730;BME280;26418;50.070;8.436;2023-04-24T12:34:23;99218.78;;;12.83;69.52
40730;BME280;26418;50.070;8.436;2023-04-24T12:36:50;99221.25;;;13.09;69.66
40730;BME280;26418;50.070;8.436;2023-04-24T12:39:16;99230.00;;;13.27;69.05
40730;BME280;26418;50.070;8.436;2023-04-24T12:41:50;99212.19;;;13.39;67.59
40730;BME280;26418;50.070;8.436;2023-04-24T12:44:19;99217.78;;;13.55;67.29
40730;BME280;26418;50.070;8.436;2023-04-24T12:46:44;99203.41;;;13.54;65.23
40730;BME280;26418;50.070;8.436;2023-04-24T12:49:10;99211.25;;;13.80;65.28
40730;BME280;26418;50.070;8.436;2023-04-24T12:51:35;99215.88;;;14.17;65.03
40730;BME280;26418;50.070;8.436;2023-04-24T12:54:00;99208.66;;;14.50;61.18
40730;BME280;26418;50.070;8.436;2023-04-24T12:56:26;99219.38;;;14.71;56.52
40730;BME280;26418;50.070;8.436;2023-04-24T12:58:51;99219.06;;;14.60;56.21
40730;BME280;26418;50.070;8.436;2023-04-24T13:01:17;99211.31;;;14.34;56.30
40730;BME280;26418;50.070;8.436;2023-04-24T13:03:42;99217.88;;;14.20;57.11
40730;BME280;26418;50.070;8.436;2023-04-24T13:06:08;99227.63;;;14.21;54.76
40730;BME280;26418;50.070;8.436;2023-04-24T13:08:33;99232.41;;;14.12;55.47
40730;BME280;26418;50.070;8.436;2023-04-24T13:10:59;99215.41;;;14.03;55.62
40730;BME280;26418;50.070;8.436;2023-04-24T13:13:24;99227.31;;;14.10;55.13
40730;BME280;26418;50.070;8.436;2023-04-24T13:15:49;99223.25;;;14.04;56.14
40730;BME280;26418;50.070;8.436;2023-04-24T13:18:15;99227.88;;;13.91;56.35
40730;BME280;26418;50.070;8.436;2023-04-24T13:20:40;99233.88;;;13.72;57.07
40730;BME280;26418;50.070;8.436;2023-04-24T13:23:06;99226.72;;;13.55;58.65
40730;BME280;26418;50.070;8.436;2023-04-24T13:25:35;99237.00;;;13.49;60.83